Weather at Albertville Airfield

Public forecast

Using degrees Celsius for public forecast. Weather courtesy of forecast.io.

Closest aviation weather report (METAR) to Albertville Airfield

Closest report is Chambéry-Savoie Airport, 18.9 nm (35.0 km) W. Retrieved 2020/09/23 09:00 UTC (11 minutes ago):

LFLB 230900Z AUTO /////KT //// R18///// R36///// // NSC 20/15 Q1012

Closest aviation forecast (TAF) to Albertville Airfield

Closest forecast is Chambéry-Savoie Airport, 18.9 nm (35.0 km) W. Retrieved 2020/09/23 06:21 UTC (3 hours ago):

TAF LFLB 230500Z 2306/2406 VRB03KT 9999 BKN030 FM230900 18004KT CAVOK PROB30 TEMPO 2323/2406 SHRA SCT030TCU BKN050